Time;durP1;ratioP1;P1;durP2;ratioP2;P2;SDS_P1;SDS_P2;PMS_P1;PMS_P2;Temp;Humidity;BMP_temperature;BMP_pressure;BME280_temperature;BME280_humidity;BME280_pressure;Samples;Min_cycle;Max_cycle;Signal;HPM_P1;HPM_P2
2021/10/12 00:00:47;;;;;;;;;;;8.90;99.90;;;;;;5000535;28;19963;-94
2021/10/12 00:03:13;;;;;;;;;;;8.90;99.90;;;;;;4999833;28;19905;-94
2021/10/12 00:05:38;;;;;;;;;;;9.00;99.90;;;;;;5000220;28;19963;-95
2021/10/12 00:08:04;;;;;;;;;;;8.90;99.90;;;;;;4999964;28;19991;-94
2021/10/12 00:10:30;;;;;;;;;;;8.90;99.90;;;;;;5000084;28;19905;-94
2021/10/12 00:12:55;;;;;;;;;;;8.70;99.90;;;;;;5000657;28;19973;-92
2021/10/12 00:15:21;;;;;;;;;;;8.70;99.90;;;;;;5000106;28;20377;-92
2021/10/12 00:17:46;;;;;;;;;;;8.70;99.90;;;;;;4999810;28;19909;-92
2021/10/12 00:20:12;;;;;;;;;;;8.80;99.90;;;;;;5000328;28;19905;-93
2021/10/12 00:22:38;;;;;;;;;;;8.80;99.90;;;;;;5000511;28;20046;-92
2021/10/12 00:25:04;;;;;;;;;;;8.80;99.90;;;;;;4999533;28;19905;-92
2021/10/12 00:27:29;;;;;;;;;;;8.70;99.90;;;;;;4999061;28;19970;-92
2021/10/12 00:29:55;;;;;;;;;;;8.50;99.90;;;;;;4999848;28;19973;-92
2021/10/12 00:32:21;;;;;;;;;;;8.60;99.90;;;;;;4999942;28;19971;-92
2021/10/12 00:34:46;;;;;;;;;;;8.70;99.90;;;;;;4999904;28;19905;-92
2021/10/12 00:37:13;;;;;;;;;;;8.70;99.90;;;;;;4999905;28;19964;-93
2021/10/12 00:39:41;;;;;;;;;;;8.70;99.90;;;;;;5001171;28;19916;-93
2021/10/12 00:42:07;;;;;;;;;;;8.70;99.90;;;;;;5000954;28;19955;-93
2021/10/12 00:44:33;;;;;;;;;;;8.70;99.90;;;;;;4999613;28;19905;-93
2021/10/12 00:46:59;;;;;;;;;;;8.70;99.90;;;;;;5000235;28;20362;-92
2021/10/12 00:49:25;;;;;;;;;;;8.90;99.90;;;;;;5001313;28;19955;-93
2021/10/12 00:51:51;;;;;;;;;;;8.90;99.90;;;;;;5003941;28;19932;-93
2021/10/12 00:54:17;;;;;;;;;;;8.80;99.90;;;;;;5003282;28;19909;-93
2021/10/12 00:56:42;;;;;;;;;;;8.80;99.90;;;;;;5002821;28;19912;-93
2021/10/12 00:59:09;;;;;;;;;;;8.80;99.90;;;;;;5003242;28;19909;-92
2021/10/12 01:01:36;;;;;;;;;;;9.00;99.90;;;;;;5003622;28;19905;-92
2021/10/12 01:04:02;;;;;;;;;;;9.10;99.90;;;;;;5003480;28;19905;-92
2021/10/12 01:06:27;;;;;;;;;;;9.30;99.90;;;;;;5003726;28;19928;-92
2021/10/12 01:08:53;;;;;;;;;;;9.40;99.90;;;;;;5003252;28;19909;-93
2021/10/12 01:11:19;;;;;;;;;;;9.10;99.90;;;;;;5003122;28;20295;-92
2021/10/12 01:13:45;;;;;;;;;;;8.90;99.90;;;;;;5003208;28;19912;-92
2021/10/12 01:16:11;;;;;;;;;;;8.90;99.90;;;;;;5003197;28;19905;-92
2021/10/12 01:18:36;;;;;;;;;;;8.90;99.90;;;;;;5003045;28;20315;-92
2021/10/12 01:21:02;;;;;;;;;;;8.80;99.90;;;;;;5006220;28;19931;-92
2021/10/12 01:23:28;;;;;;;;;;;8.90;99.90;;;;;;5027009;28;19968;-94
2021/10/12 01:25:53;;;;;;;;;;;9.00;99.90;;;;;;5023713;28;19967;-93
2021/10/12 01:28:19;;;;;;;;;;;9.00;99.90;;;;;;5003472;28;20395;-92
2021/10/12 01:30:45;;;;;;;;;;;9.00;99.90;;;;;;5003189;28;19905;-92
2021/10/12 01:33:11;;;;;;;;;;;8.90;99.90;;;;;;5012374;28;19955;-92
2021/10/12 01:35:36;;;;;;;;;;;9.00;99.90;;;;;;5004305;28;19999;-93
2021/10/12 01:38:02;;;;;;;;;;;8.90;99.90;;;;;;5007197;28;19913;-93
2021/10/12 01:40:28;;;;;;;;;;;8.90;99.90;;;;;;5002573;28;19913;-93
2021/10/12 01:42:57;;;;;;;;;;;8.90;99.90;;;;;;5002428;28;19913;-92
2021/10/12 01:45:24;;;;;;;;;;;8.90;99.90;;;;;;5002273;28;20358;-93
2021/10/12 01:47:50;;;;;;;;;;;8.90;99.90;;;;;;5002271;28;20250;-93
2021/10/12 01:50:16;;;;;;;;;;;8.80;99.90;;;;;;5002214;28;19996;-93
2021/10/12 01:52:42;;;;;;;;;;;8.80;99.90;;;;;;5002173;28;19964;-93
2021/10/12 01:55:07;;;;;;;;;;;8.90;99.90;;;;;;5001408;28;19940;-92
2021/10/12 01:57:33;;;;;;;;;;;8.90;99.90;;;;;;5001885;28;20004;-92
2021/10/12 01:59:59;;;;;;;;;;;8.80;99.90;;;;;;5001714;28;20006;-92
2021/10/12 02:02:24;;;;;;;;;;;8.90;99.90;;;;;;5001810;28;20004;-93
2021/10/12 02:04:50;;;;;;;;;;;8.90;99.90;;;;;;5001544;28;19912;-93
2021/10/12 02:07:16;;;;;;;;;;;8.90;99.90;;;;;;5001624;28;20329;-93
2021/10/12 02:09:41;;;;;;;;;;;8.90;99.90;;;;;;5001655;28;19988;-93
2021/10/12 02:12:07;;;;;;;;;;;8.90;99.90;;;;;;5001465;28;19996;-93
2021/10/12 02:14:33;;;;;;;;;;;9.00;99.90;;;;;;5001383;28;20020;-93
2021/10/12 02:16:58;;;;;;;;;;;8.90;99.90;;;;;;5001730;28;19963;-93
2021/10/12 02:19:24;;;;;;;;;;;8.90;99.90;;;;;;5001296;28;19941;-93
2021/10/12 02:21:49;;;;;;;;;;;9.00;99.90;;;;;;5001555;28;19905;-92
2021/10/12 02:24:15;;;;;;;;;;;8.90;99.90;;;;;;5001147;28;19905;-93
2021/10/12 02:26:41;;;;;;;;;;;8.80;99.90;;;;;;5001153;28;19912;-92
2021/10/12 02:29:06;;;;;;;;;;;8.90;99.90;;;;;;5001254;28;19906;-92
2021/10/12 02:31:32;;;;;;;;;;;8.80;99.90;;;;;;5001045;28;19915;-93
2021/10/12 02:33:57;;;;;;;;;;;8.70;99.90;;;;;;5001185;28;19905;-92
2021/10/12 02:36:23;;;;;;;;;;;8.70;99.90;;;;;;5000536;28;19912;-93
2021/10/12 02:38:49;;;;;;;;;;;8.70;99.90;;;;;;5001038;28;20337;-93
2021/10/12 02:41:14;;;;;;;;;;;8.70;99.90;;;;;;5001131;28;20397;-93
2021/10/12 02:43:40;;;;;;;;;;;8.70;99.90;;;;;;5001258;28;20004;-93
2021/10/12 02:46:06;;;;;;;;;;;8.80;99.90;;;;;;5001553;28;19905;-92
2021/10/12 02:48:31;;;;;;;;;;;8.90;99.90;;;;;;5001555;28;19992;-93
2021/10/12 02:50:57;;;;;;;;;;;8.90;99.90;;;;;;5001318;28;19973;-93
2021/10/12 02:53:22;;;;;;;;;;;8.90;99.90;;;;;;5001239;28;19905;-93
2021/10/12 02:55:48;;;;;;;;;;;8.90;99.90;;;;;;5000577;28;19948;-92
2021/10/12 02:58:14;;;;;;;;;;;9.00;99.90;;;;;;5001028;28;20372;-93
2021/10/12 03:00:40;;;;;;;;;;;9.00;99.90;;;;;;5000917;28;19909;-93
2021/10/12 03:03:09;;;;;;;;;;;9.10;99.90;;;;;;5001216;28;19955;-93
2021/10/12 03:05:35;;;;;;;;;;;8.90;99.90;;;;;;5000694;28;19905;-92
2021/10/12 03:08:01;;;;;;;;;;;8.70;99.90;;;;;;5001283;28;19905;-93
2021/10/12 03:10:26;;;;;;;;;;;8.70;99.90;;;;;;5000621;28;19905;-92
2021/10/12 03:12:52;;;;;;;;;;;8.70;99.90;;;;;;5000318;28;19948;-93
2021/10/12 03:15:18;;;;;;;;;;;8.70;99.90;;;;;;5000584;28;19905;-93
2021/10/12 03:17:43;;;;;;;;;;;8.70;99.90;;;;;;5000490;28;20004;-92
2021/10/12 03:20:09;;;;;;;;;;;8.60;99.90;;;;;;5000420;28;19912;-93
2021/10/12 03:22:35;;;;;;;;;;;8.60;99.90;;;;;;5000719;28;20398;-92
2021/10/12 03:25:01;;;;;;;;;;;8.50;99.90;;;;;;5000304;28;19905;-93
2021/10/12 03:27:27;;;;;;;;;;;8.40;99.90;;;;;;4999924;28;20343;-93
2021/10/12 03:29:52;;;;;;;;;;;8.10;99.90;;;;;;5000098;28;20381;-93
2021/10/12 03:32:18;;;;;;;;;;;7.90;99.90;;;;;;5000606;28;20358;-93
2021/10/12 03:34:44;;;;;;;;;;;7.80;99.90;;;;;;5000449;28;20075;-92
2021/10/12 03:37:09;;;;;;;;;;;7.70;99.90;;;;;;4999769;28;19916;-93
2021/10/12 03:39:35;;;;;;;;;;;7.80;99.90;;;;;;5000318;28;19909;-92
2021/10/12 03:42:01;;;;;;;;;;;7.70;99.90;;;;;;4999771;28;19905;-93
2021/10/12 03:44:26;;;;;;;;;;;7.60;99.90;;;;;;4999800;28;19904;-93
2021/10/12 03:46:52;;;;;;;;;;;7.60;99.90;;;;;;4999948;28;19912;-92
2021/10/12 03:49:17;;;;;;;;;;;7.60;99.90;;;;;;5003875;28;20268;-91
2021/10/12 03:51:43;;;;;;;;;;;7.70;99.90;;;;;;5000859;28;19905;-92
2021/10/12 03:54:13;;;;;;;;;;;7.60;99.90;;;;;;5000329;28;19912;-92
2021/10/12 03:56:40;;;;;;;;;;;7.60;99.90;;;;;;5006737;28;19958;-92
2021/10/12 03:59:05;;;;;;;;;;;7.60;99.90;;;;;;5006727;28;19916;-92
2021/10/12 04:01:31;;;;;;;;;;;7.40;99.90;;;;;;5007782;28;19944;-91
2021/10/12 04:03:57;;;;;;;;;;;7.50;99.90;;;;;;5008505;28;19916;-91
2021/10/12 04:06:23;;;;;;;;;;;7.60;99.90;;;;;;5008383;28;19912;-92
2021/10/12 04:08:48;;;;;;;;;;;7.60;99.90;;;;;;5017590;28;19909;-90
2021/10/12 04:11:14;;;;;;;;;;;7.60;99.90;;;;;;5024649;28;19897;-90
2021/10/12 04:13:39;;;;;;;;;;;7.50;99.90;;;;;;5019714;28;19909;-90
2021/10/12 04:16:05;;;;;;;;;;;7.60;99.90;;;;;;5016319;28;20035;-92
2021/10/12 04:18:31;;;;;;;;;;;7.60;99.90;;;;;;5015641;28;19909;-91
2021/10/12 04:20:57;;;;;;;;;;;7.50;99.90;;;;;;5012232;28;19909;-92
2021/10/12 04:23:22;;;;;;;;;;;7.40;99.90;;;;;;5006672;28;19905;-92
2021/10/12 04:25:48;;;;;;;;;;;7.40;99.90;;;;;;5011014;28;19916;-92
2021/10/12 04:28:14;;;;;;;;;;;7.40;99.90;;;;;;5011585;28;19912;-93
2021/10/12 04:30:41;;;;;;;;;;;7.50;99.90;;;;;;5013276;28;19924;-92
2021/10/12 04:33:06;;;;;;;;;;;7.60;99.90;;;;;;5013096;28;19905;-92
2021/10/12 04:35:32;;;;;;;;;;;7.60;99.90;;;;;;5013334;28;19911;-92
2021/10/12 04:37:58;;;;;;;;;;;7.70;99.90;;;;;;5012483;28;20366;-91
2021/10/12 04:40:25;;;;;;;;;;;7.60;99.90;;;;;;5012937;28;19955;-92
2021/10/12 04:42:51;;;;;;;;;;;7.70;99.90;;;;;;5011406;28;19905;-92
2021/10/12 04:45:17;;;;;;;;;;;7.60;99.90;;;;;;5011833;28;20388;-91
2021/10/12 04:47:42;;;;;;;;;;;7.50;99.90;;;;;;5012152;28;20370;-92
2021/10/12 04:50:08;;;;;;;;;;;7.60;99.90;;;;;;5011847;28;19992;-92
2021/10/12 04:52:34;;;;;;;;;;;7.60;99.90;;;;;;5011538;28;19912;-91
2021/10/12 04:55:00;;;;;;;;;;;7.70;99.90;;;;;;5011954;28;19913;-92
2021/10/12 04:57:25;;;;;;;;;;;7.90;99.90;;;;;;5012699;28;19976;-92
2021/10/12 04:59:51;;;;;;;;;;;7.90;99.90;;;;;;5011197;28;19976;-92
2021/10/12 05:02:17;;;;;;;;;;;8.10;99.90;;;;;;5013338;28;19912;-91
2021/10/12 05:04:42;;;;;;;;;;;8.30;99.90;;;;;;5012457;28;19905;-91
2021/10/12 05:07:08;;;;;;;;;;;8.40;99.90;;;;;;5012515;28;19909;-92
2021/10/12 05:09:33;;;;;;;;;;;8.30;99.90;;;;;;5026886;28;19905;-91
2021/10/12 05:11:59;;;;;;;;;;;8.30;99.90;;;;;;5011616;28;19948;-92
2021/10/12 05:14:25;;;;;;;;;;;8.30;99.90;;;;;;5011031;28;19905;-91
2021/10/12 05:16:51;;;;;;;;;;;8.20;99.90;;;;;;5009308;28;19905;-92
2021/10/12 05:19:17;;;;;;;;;;;8.00;99.90;;;;;;5008938;28;19988;-91
2021/10/12 05:21:43;;;;;;;;;;;8.00;99.90;;;;;;5010210;28;20366;-92
2021/10/12 05:24:08;;;;;;;;;;;7.90;99.90;;;;;;5009917;28;19955;-91
2021/10/12 05:26:34;;;;;;;;;;;7.90;99.90;;;;;;5009396;28;19933;-92
2021/10/12 05:29:00;;;;;;;;;;;7.80;99.90;;;;;;5008954;28;19905;-91
2021/10/12 05:31:26;;;;;;;;;;;7.80;99.90;;;;;;5009801;28;19955;-92
2021/10/12 05:33:51;;;;;;;;;;;7.90;99.90;;;;;;5011925;28;19945;-92
2021/10/12 05:36:17;;;;;;;;;;;8.00;99.90;;;;;;5014142;28;19905;-92
2021/10/12 05:38:43;;;;;;;;;;;7.90;99.90;;;;;;5010527;28;19924;-93
2021/10/12 05:41:09;;;;;;;;;;;7.80;99.90;;;;;;5009480;28;19925;-92
2021/10/12 05:43:35;;;;;;;;;;;7.80;99.90;;;;;;5012014;28;20011;-92
2021/10/12 05:46:01;;;;;;;;;;;7.80;99.90;;;;;;5028465;28;19905;-92
2021/10/12 05:48:28;;;;;;;;;;;7.80;99.90;;;;;;4999139;28;19905;-92
2021/10/12 05:50:53;;;;;;;;;;;7.80;99.90;;;;;;4996808;28;19906;-92
2021/10/12 05:53:24;;;;;;;;;;;7.80;99.90;;;;;;4994519;28;19970;-92
2021/10/12 05:58:27;;;;;;;;;;;7.80;99.90;;;;;;5026173;28;19948;-92
2021/10/12 06:00:53;;;;;;;;;;;7.90;99.90;;;;;;5005008;28;19906;-91
2021/10/12 06:03:19;;;;;;;;;;;7.80;99.90;;;;;;5005399;28;19925;-91
2021/10/12 06:05:44;;;;;;;;;;;7.70;99.90;;;;;;5001748;28;19909;-91
2021/10/12 06:08:10;;;;;;;;;;;7.80;99.90;;;;;;5004836;28;19905;-92
2021/10/12 06:10:37;;;;;;;;;;;7.80;99.90;;;;;;5011347;28;19912;-93
2021/10/12 06:13:09;;;;;;;;;;;7.80;99.90;;;;;;5010854;28;20516;-91
2021/10/12 06:15:35;;;;;;;;;;;7.80;99.90;;;;;;5011123;28;19974;-92
2021/10/12 06:18:00;;;;;;;;;;;7.80;99.90;;;;;;5012101;28;19909;-92
2021/10/12 06:20:26;;;;;;;;;;;7.90;99.90;;;;;;5012761;28;19905;-92
2021/10/12 06:22:52;;;;;;;;;;;8.00;99.90;;;;;;5011227;28;19960;-92
2021/10/12 06:25:20;;;;;;;;;;;7.90;99.90;;;;;;5009308;28;19905;-92
2021/10/12 06:27:45;;;;;;;;;;;7.90;99.90;;;;;;5006236;28;19913;-92
2021/10/12 06:30:11;;;;;;;;;;;7.90;99.90;;;;;;5003895;28;19905;-91
2021/10/12 06:32:37;;;;;;;;;;;7.90;99.90;;;;;;5009237;28;19905;-92
2021/10/12 06:35:06;;;;;;;;;;;8.00;99.90;;;;;;5008786;28;19915;-92
2021/10/12 06:37:32;;;;;;;;;;;8.10;99.90;;;;;;5008383;28;19909;-93
2021/10/12 06:39:58;;;;;;;;;;;8.40;99.90;;;;;;5009316;28;19972;-91
2021/10/12 06:42:24;;;;;;;;;;;8.50;99.90;;;;;;5008745;28;19920;-92
2021/10/12 06:44:49;;;;;;;;;;;8.60;99.90;;;;;;5011612;28;19964;-92
2021/10/12 06:47:15;;;;;;;;;;;8.70;99.90;;;;;;5007730;28;19905;-92
2021/10/12 06:49:41;;;;;;;;;;;8.70;99.90;;;;;;5002655;28;19917;-92
2021/10/12 06:52:06;;;;;;;;;;;8.80;99.90;;;;;;5006760;28;19948;-92
2021/10/12 06:54:32;;;;;;;;;;;8.80;99.90;;;;;;5007548;28;19935;-92
2021/10/12 06:57:00;;;;;;;;;;;8.90;99.90;;;;;;5009034;28;20557;-92
2021/10/12 06:59:25;;;;;;;;;;;9.10;99.90;;;;;;5022118;28;19905;-92
2021/10/12 07:01:54;;;;;;;;;;;9.10;99.90;;;;;;5022932;28;19955;-92
2021/10/12 07:04:27;;;;;;;;;;;9.10;99.90;;;;;;5019699;28;19972;-91
2021/10/12 07:06:55;;;;;;;;;;;9.00;99.90;;;;;;5009309;28;19905;-93
2021/10/12 07:09:21;;;;;;;;;;;9.00;99.90;;;;;;4996969;28;19912;-92
2021/10/12 07:11:48;;;;;;;;;;;9.10;99.90;;;;;;5007527;28;19921;-92
2021/10/12 07:14:16;;;;;;;;;;;9.00;99.90;;;;;;5022756;28;20332;-92
2021/10/12 07:16:44;;;;;;;;;;;8.80;99.90;;;;;;5008269;28;19931;-92
2021/10/12 07:19:15;;;;;;;;;;;8.80;99.90;;;;;;5006318;28;19921;-92
2021/10/12 07:21:50;;;;;;;;;;;8.90;99.90;;;;;;5007543;28;19969;-92
2021/10/12 07:24:15;;;;;;;;;;;8.90;99.90;;;;;;4991456;28;20351;-92
2021/10/12 07:26:49;;;;;;;;;;;9.00;99.90;;;;;;5029771;23;20355;-75
2021/10/12 07:29:15;;;;;;;;;;;8.80;99.90;;;;;;5035591;28;19992;-75
2021/10/12 07:31:41;;;;;;;;;;;8.70;99.90;;;;;;5030809;28;20039;-73
2021/10/12 07:34:07;;;;;;;;;;;8.80;99.90;;;;;;5030935;28;19909;-72
2021/10/12 07:36:33;;;;;;;;;;;8.90;99.90;;;;;;5013585;28;20263;-73
2021/10/12 07:38:59;;;;;;;;;;;9.00;99.90;;;;;;5013422;28;19920;-74
2021/10/12 07:41:24;;;;;;;;;;;9.10;99.90;;;;;;5033058;28;19913;-73
2021/10/12 07:43:50;;;;;;;;;;;9.20;99.90;;;;;;5031253;28;20363;-74
2021/10/12 07:46:16;;;;;;;;;;;9.20;99.90;;;;;;5030664;28;19933;-74
2021/10/12 07:48:42;;;;;;;;;;;9.20;99.90;;;;;;5013192;28;19905;-73
2021/10/12 07:51:07;;;;;;;;;;;9.40;99.90;;;;;;5030523;28;19983;-73
2021/10/12 07:53:36;;;;;;;;;;;9.50;99.90;;;;;;5013263;28;19948;-73
2021/10/12 07:56:05;;;;;;;;;;;9.20;99.90;;;;;;5030606;28;19928;-74
2021/10/12 07:58:31;;;;;;;;;;;9.10;99.90;;;;;;5031152;28;19909;-74
2021/10/12 08:00:56;;;;;;;;;;;8.90;99.90;;;;;;5016205;28;19905;-74
2021/10/12 08:03:22;;;;;;;;;;;8.90;99.90;;;;;;5030820;28;19905;-73
2021/10/12 08:05:47;;;;;;;;;;;9.00;99.90;;;;;;5013166;28;19905;-73
2021/10/12 08:08:13;;;;;;;;;;;9.10;99.90;;;;;;5030909;28;19995;-74
2021/10/12 08:10:39;;;;;;;;;;;9.10;99.90;;;;;;5032111;28;19920;-74
2021/10/12 08:13:10;;;;;;;;;;;9.20;99.90;;;;;;5012787;28;19921;-74
2021/10/12 08:15:36;;;;;;;;;;;9.10;99.90;;;;;;4996567;28;20273;-74
2021/10/12 08:18:01;;;;;;;;;;;9.10;99.90;;;;;;5012790;28;19909;-73
2021/10/12 08:20:27;;;;;;;;;;;9.00;99.90;;;;;;5030432;28;19905;-73
2021/10/12 08:22:54;;;;;;;;;;;9.00;99.90;;;;;;5030979;28;19952;-73
2021/10/12 08:25:20;;;;;;;;;;;9.20;99.90;;;;;;5030515;28;19909;-74
2021/10/12 08:27:45;;;;;;;;;;;9.20;99.90;;;;;;4997762;28;19910;-74
2021/10/12 08:30:12;;;;;;;;;;;9.40;99.90;;;;;;5029775;28;19912;-73
2021/10/12 08:32:39;;;;;;;;;;;9.40;99.90;;;;;;5012671;28;19909;-74
2021/10/12 08:35:09;;;;;;;;;;;9.60;99.90;;;;;;5030774;28;20273;-74
2021/10/12 08:37:35;;;;;;;;;;;9.60;99.90;;;;;;5034429;28;19909;-74
2021/10/12 08:40:01;;;;;;;;;;;9.60;99.90;;;;;;5012730;28;19916;-74
2021/10/12 08:42:27;;;;;;;;;;;9.60;99.90;;;;;;5012996;28;19952;-74
2021/10/12 08:44:54;;;;;;;;;;;9.50;99.90;;;;;;5030390;28;19909;-73
2021/10/12 08:47:20;;;;;;;;;;;9.60;99.90;;;;;;5032213;28;19944;-73
2021/10/12 08:49:46;;;;;;;;;;;9.60;99.90;;;;;;5030401;28;19913;-73
2021/10/12 08:52:12;;;;;;;;;;;9.60;99.90;;;;;;4999607;28;20262;-75
2021/10/12 08:54:37;;;;;;;;;;;9.60;99.90;;;;;;5030529;28;19913;-73
2021/10/12 08:57:03;;;;;;;;;;;9.60;99.90;;;;;;5030050;28;19912;-73
2021/10/12 08:59:29;;;;;;;;;;;9.50;99.90;;;;;;5012918;28;20436;-73
2021/10/12 09:01:59;;;;;;;;;;;9.50;99.90;;;;;;5029826;28;20353;-71
2021/10/12 09:04:35;;;;;;;;;;;9.50;99.90;;;;;;5030367;28;19955;-74
2021/10/12 09:07:00;;;;;;;;;;;9.30;99.90;;;;;;5015972;28;19906;-75
2021/10/12 09:09:35;;;;;;;;;;;9.20;99.90;;;;;;5030232;28;20308;-75
2021/10/12 09:12:02;;;;;;;;;;;9.10;99.90;;;;;;5016178;28;20369;-75
2021/10/12 09:14:28;;;;;;;;;;;9.20;99.90;;;;;;5016305;28;20292;-74
2021/10/12 09:17:03;;;;;;;;;;;9.10;99.90;;;;;;5015838;28;19909;-75
2021/10/12 09:19:30;;;;;;;;;;;9.00;99.90;;;;;;5015932;28;19905;-75
2021/10/12 09:21:57;;;;;;;;;;;9.10;99.90;;;;;;5037232;28;19909;-75
2021/10/12 09:24:24;;;;;;;;;;;9.20;99.90;;;;;;5034073;28;20383;-75
2021/10/12 09:26:55;;;;;;;;;;;9.20;99.90;;;;;;5032976;28;20007;-75
2021/10/12 09:31:59;;;;;;;;;;;9.30;99.90;;;;;;5016530;28;19932;-75
2021/10/12 09:34:28;;;;;;;;;;;9.10;99.90;;;;;;5015733;28;19928;-76
2021/10/12 09:36:54;;;;;;;;;;;9.10;99.90;;;;;;5015066;28;19915;-75
2021/10/12 09:39:37;;;;;;;;;;;9.10;99.90;;;;;;5032900;28;19909;-75
2021/10/12 09:42:04;;;;;;;;;;;9.10;99.90;;;;;;5015495;28;19905;-74
2021/10/12 09:44:30;;;;;;;;;;;8.90;99.90;;;;;;5033201;28;19905;-74
2021/10/12 09:47:09;;;;;;;;;;;8.80;99.90;;;;;;5034363;28;19951;-75
2021/10/12 09:49:35;;;;;;;;;;;8.80;99.90;;;;;;5015330;28;19905;-75
2021/10/12 09:52:05;;;;;;;;;;;8.90;99.90;;;;;;5017445;28;19978;-75
2021/10/12 09:54:32;;;;;;;;;;;8.80;99.90;;;;;;5033000;28;19958;-75
2021/10/12 09:56:58;;;;;;;;;;;8.80;99.90;;;;;;5015160;28;19987;-74
2021/10/12 09:59:24;;;;;;;;;;;8.90;99.90;;;;;;5015243;28;20024;-74
2021/10/12 10:01:51;;;;;;;;;;;9.00;99.90;;;;;;5033452;28;20026;-74
2021/10/12 10:04:18;;;;;;;;;;;9.00;99.90;;;;;;5015676;28;19974;-74
2021/10/12 10:06:48;;;;;;;;;;;9.00;99.90;;;;;;5033284;28;19905;-74
2021/10/12 10:09:14;;;;;;;;;;;8.90;99.90;;;;;;5015347;28;20652;-75
2021/10/12 10:11:42;;;;;;;;;;;9.10;99.90;;;;;;5032731;28;19909;-74
2021/10/12 10:14:09;;;;;;;;;;;9.00;99.90;;;;;;5014274;28;19959;-74
2021/10/12 10:16:39;;;;;;;;;;;8.90;99.90;;;;;;5014767;28;19906;-74
2021/10/12 10:19:06;;;;;;;;;;;8.90;99.90;;;;;;5014605;28;20023;-74
2021/10/12 10:21:35;;;;;;;;;;;8.80;99.90;;;;;;5032858;28;19951;-75
2021/10/12 10:26:28;;;;;;;;;;;9.50;99.90;;;;;;5014806;28;19943;-74
2021/10/12 10:28:55;;;;;;;;;;;9.60;99.90;;;;;;5031988;28;20411;-75
2021/10/12 10:31:37;;;;;;;;;;;9.90;99.90;;;;;;5013680;28;19909;-75
2021/10/12 10:34:32;;;;;;;;;;;10.20;99.90;;;;;;5031460;28;19905;-75
2021/10/12 10:37:17;;;;;;;;;;;10.20;99.90;;;;;;5018894;28;19905;-74
2021/10/12 10:39:50;;;;;;;;;;;10.20;99.90;;;;;;5033446;28;19911;-74
2021/10/12 10:42:25;;;;;;;;;;;9.90;99.90;;;;;;5014485;28;19971;-75
2021/10/12 10:44:54;;;;;;;;;;;9.80;99.90;;;;;;5000709;28;19996;-74
2021/10/12 10:47:40;;;;;;;;;;;9.80;99.90;;;;;;5032419;28;19985;-75
2021/10/12 10:50:33;;;;;;;;;;;9.70;99.90;;;;;;4996255;28;19916;-75
2021/10/12 10:53:01;;;;;;;;;;;9.50;99.90;;;;;;5012810;28;20391;-75
2021/10/12 10:55:29;;;;;;;;;;;9.50;99.90;;;;;;5013068;28;19908;-74
2021/10/12 10:58:14;;;;;;;;;;;9.30;99.90;;;;;;5033105;28;19908;-74
2021/10/12 11:00:44;;;;;;;;;;;9.40;99.90;;;;;;5014184;28;20383;-74
2021/10/12 11:03:28;;;;;;;;;;;9.30;99.90;;;;;;5012335;28;20387;-74
2021/10/12 11:05:53;;;;;;;;;;;9.20;99.90;;;;;;5028933;28;19909;-75
2021/10/12 11:08:24;;;;;;;;;;;9.20;99.90;;;;;;5014493;28;19912;-75
2021/10/12 11:10:49;;;;;;;;;;;9.20;99.90;;;;;;4997399;28;20296;-74
2021/10/12 11:13:34;;;;;;;;;;;9.30;99.90;;;;;;5015755;28;19908;-75
2021/10/12 11:16:01;;;;;;;;;;;9.10;99.90;;;;;;5012222;28;19909;-74
2021/10/12 11:18:27;;;;;;;;;;;9.00;99.90;;;;;;5012626;28;19959;-74
2021/10/12 11:20:55;;;;;;;;;;;9.10;99.90;;;;;;5029726;28;19940;-74
2021/10/12 11:23:25;;;;;;;;;;;9.00;99.90;;;;;;5031001;28;19913;-74
2021/10/12 11:25:55;;;;;;;;;;;8.90;99.90;;;;;;5032361;28;19960;-74
2021/10/12 11:28:22;;;;;;;;;;;8.90;99.90;;;;;;5014749;28;19905;-76
2021/10/12 11:30:48;;;;;;;;;;;8.70;99.90;;;;;;5031415;28;19952;-74
2021/10/12 11:33:13;;;;;;;;;;;8.90;99.90;;;;;;5012896;28;19941;-75
2021/10/12 11:35:39;;;;;;;;;;;9.10;99.90;;;;;;5013293;28;19912;-74
2021/10/12 11:38:06;;;;;;;;;;;9.10;99.90;;;;;;4997096;28;19916;-74
2021/10/12 11:40:33;;;;;;;;;;;9.30;99.90;;;;;;4996528;28;19905;-74
2021/10/12 11:42:59;;;;;;;;;;;9.40;99.90;;;;;;5030958;28;19912;-74
2021/10/12 11:45:26;;;;;;;;;;;9.40;99.90;;;;;;4998122;28;20668;-75
2021/10/12 11:47:52;;;;;;;;;;;9.40;99.90;;;;;;5013641;28;19941;-74
2021/10/12 11:50:18;;;;;;;;;;;9.60;99.90;;;;;;5031087;28;19944;-74
2021/10/12 11:52:47;;;;;;;;;;;9.30;99.90;;;;;;5031702;28;19912;-74
2021/10/12 11:55:14;;;;;;;;;;;9.40;99.90;;;;;;4996847;28;19987;-75
2021/10/12 11:57:49;;;;;;;;;;;9.40;99.90;;;;;;5031015;28;19908;-75
2021/10/12 12:00:15;;;;;;;;;;;9.30;99.90;;;;;;5013921;28;20397;-75
2021/10/12 12:02:42;;;;;;;;;;;9.30;99.90;;;;;;5011983;28;20414;-74
2021/10/12 12:05:08;;;;;;;;;;;9.10;99.90;;;;;;5011455;28;19909;-74
2021/10/12 12:07:36;;;;;;;;;;;8.90;99.90;;;;;;4996616;28;20242;-75
2021/10/12 12:10:03;;;;;;;;;;;8.90;99.90;;;;;;5012720;28;19905;-74
2021/10/12 12:12:28;;;;;;;;;;;8.90;99.90;;;;;;5031034;28;19948;-75
2021/10/12 12:14:54;;;;;;;;;;;9.00;99.90;;;;;;5031095;28;19944;-74
2021/10/12 12:17:24;;;;;;;;;;;9.00;99.90;;;;;;5013175;28;19920;-74
2021/10/12 12:19:57;;;;;;;;;;;9.10;99.90;;;;;;5030675;28;19955;-75
2021/10/12 12:22:23;;;;;;;;;;;9.20;99.90;;;;;;5013300;28;19905;-75
2021/10/12 12:25:06;;;;;;;;;;;9.20;99.90;;;;;;5014913;28;20300;-74
2021/10/12 12:27:49;;;;;;;;;;;8.90;99.90;;;;;;5008939;28;19909;-74
2021/10/12 12:30:15;;;;;;;;;;;8.80;99.90;;;;;;5030629;28;20346;-74
2021/10/12 12:32:53;;;;;;;;;;;8.80;99.90;;;;;;5029132;28;19905;-75
2021/10/12 12:35:19;;;;;;;;;;;8.90;99.90;;;;;;5012470;28;19913;-75
2021/10/12 12:37:55;;;;;;;;;;;8.90;99.90;;;;;;5011109;28;20215;-76
2021/10/12 12:40:24;;;;;;;;;;;9.00;99.90;;;;;;5008506;28;19905;-74
2021/10/12 12:42:49;;;;;;;;;;;9.10;99.90;;;;;;5012694;28;20292;-75
2021/10/12 12:45:16;;;;;;;;;;;9.10;99.90;;;;;;5013441;28;19905;-75
2021/10/12 12:47:51;;;;;;;;;;;9.00;99.90;;;;;;5000108;28;19922;-75
2021/10/12 12:50:22;;;;;;;;;;;9.10;99.90;;;;;;5033861;28;19920;-75
2021/10/12 12:52:47;;;;;;;;;;;9.20;99.90;;;;;;5016450;28;19944;-75
2021/10/12 12:55:33;;;;;;;;;;;9.10;99.90;;;;;;5019276;28;20332;-75
2021/10/12 12:57:59;;;;;;;;;;;9.10;99.90;;;;;;5016604;28;20003;-74
2021/10/12 13:00:25;;;;;;;;;;;9.10;99.90;;;;;;5037957;28;20413;-74
2021/10/12 13:02:54;;;;;;;;;;;9.00;99.90;;;;;;5016312;28;19992;-75
2021/10/12 13:05:20;;;;;;;;;;;9.20;99.90;;;;;;5033410;28;19928;-76
2021/10/12 13:07:45;;;;;;;;;;;9.20;99.90;;;;;;5015095;28;19905;-74
2021/10/12 13:10:11;;;;;;;;;;;9.20;99.90;;;;;;5033474;28;19916;-76
2021/10/12 13:12:37;;;;;;;;;;;9.20;99.90;;;;;;5033723;28;19913;-75
2021/10/12 13:15:03;;;;;;;;;;;9.10;99.90;;;;;;5000502;28;19913;-74
2021/10/12 13:17:29;;;;;;;;;;;9.10;99.90;;;;;;5017686;28;20074;-74
2021/10/12 13:19:55;;;;;;;;;;;9.10;99.90;;;;;;4999907;28;19927;-74
2021/10/12 13:22:21;;;;;;;;;;;9.10;99.90;;;;;;4999008;28;19911;-74
2021/10/12 13:24:47;;;;;;;;;;;9.10;99.90;;;;;;4999455;28;20339;-74
2021/10/12 13:27:13;;;;;;;;;;;9.10;99.90;;;;;;5035670;28;20003;-74
2021/10/12 13:29:39;;;;;;;;;;;9.10;99.90;;;;;;5015803;28;19996;-74
2021/10/12 13:32:05;;;;;;;;;;;9.10;99.90;;;;;;5033895;28;20000;-74
2021/10/12 13:34:31;;;;;;;;;;;9.20;99.90;;;;;;5015585;28;19905;-74
2021/10/12 13:36:57;;;;;;;;;;;9.30;99.90;;;;;;5031853;28;19905;-75
2021/10/12 13:39:22;;;;;;;;;;;9.50;99.90;;;;;;5014309;28;19931;-75
2021/10/12 13:41:50;;;;;;;;;;;9.30;99.90;;;;;;5014607;28;19905;-74
2021/10/12 13:44:16;;;;;;;;;;;9.30;99.90;;;;;;5015503;28;20704;-74
2021/10/12 13:46:42;;;;;;;;;;;9.20;99.90;;;;;;5015251;28;19909;-74
2021/10/12 13:49:07;;;;;;;;;;;9.00;99.90;;;;;;5015286;28;20012;-74
2021/10/12 13:51:33;;;;;;;;;;;8.90;99.90;;;;;;5032879;28;19909;-75
2021/10/12 13:53:58;;;;;;;;;;;8.80;99.90;;;;;;5033244;28;19952;-74
2021/10/12 13:56:25;;;;;;;;;;;8.80;99.90;;;;;;5032419;28;19916;-74
2021/10/12 13:58:51;;;;;;;;;;;9.00;99.90;;;;;;5014298;28;19978;-74
2021/10/12 14:01:17;;;;;;;;;;;8.90;99.90;;;;;;5018000;28;19905;-74
2021/10/12 14:03:43;;;;;;;;;;;8.90;99.90;;;;;;5032818;28;19905;-74
2021/10/12 14:06:08;;;;;;;;;;;9.00;99.90;;;;;;5014857;28;19905;-75
2021/10/12 14:08:34;;;;;;;;;;;9.00;99.90;;;;;;5014530;28;20391;-75
2021/10/12 14:11:00;;;;;;;;;;;8.90;99.90;;;;;;5014875;28;19992;-75
2021/10/12 14:13:26;;;;;;;;;;;8.80;99.90;;;;;;5032529;28;19912;-74
2021/10/12 14:15:54;;;;;;;;;;;8.90;99.90;;;;;;5016368;28;19911;-74
2021/10/12 14:18:21;;;;;;;;;;;8.80;99.90;;;;;;5015524;28;19909;-74
2021/10/12 14:20:52;;;;;;;;;;;8.80;99.90;;;;;;4997702;28;19905;-74
2021/10/12 14:23:19;;;;;;;;;;;8.90;99.90;;;;;;5015102;28;20023;-75
2021/10/12 14:25:45;;;;;;;;;;;8.90;99.90;;;;;;5014875;28;19921;-74
2021/10/12 14:28:11;;;;;;;;;;;8.90;99.90;;;;;;4999013;28;20257;-74
2021/10/12 14:30:36;;;;;;;;;;;8.90;99.90;;;;;;5032123;28;20437;-74
2021/10/12 14:33:02;;;;;;;;;;;8.80;99.90;;;;;;5017237;28;20238;-75
2021/10/12 14:35:28;;;;;;;;;;;8.90;99.90;;;;;;5032353;28;19905;-75
2021/10/12 14:37:54;;;;;;;;;;;8.90;99.90;;;;;;5014614;28;19920;-75